Wood Dale, Illinois
Current Conditions -  °F | °C
As of 4:51 PM on Thursday 23 Oct 2014 (Local Time) from KORD Reporting Station
Overcast Overcast  
Wind Chill: 57°   Ceiling: 20000
Heat Index: 57°   Visibility: 10mi
Dew Point: 42°   Wind: 9mph
Humidity: 57%   Direction: 180°S
Pressure: 30.08"   Gusts: NA
Location:  41.97°N, 87.98°W
Report Text: KORD 232151Z 18008KT 10SM SCT160 OVC200 14/06 A3008 RMK AO2 SLP188 T01390056 $
Loading
Personal Weather Stations






























Interactive Weather Map
Tropical Storm Tracking
New forecast layout! Learn more

10-Day Weather Forecast

Advertisements
Track Severe Weather on mobile